Aviation Digital Data Service (ADDS)

Output produced by METARs form (1749 UTC 24 June 2019)
found at http://www.aviationweather.gov/metar/data/
 
METAR text: LFQQ 241730Z AUTO 36007KT 330V040 CAVOK 27/19 Q1016 NOSIG
Conditions at: LFQQ (LILLE/LESQUIN , FR) observed 1730 UTC 24 June 2019
Temperature: 27.0°C (81°F)
Dewpoint: 19.0°C (66°F) [RH = 62%]
Pressure (altimeter): 30.00 inches Hg (1016.0 mb)
Winds: from the N (360 degrees) at 8 MPH (7 knots; 3.6 m/s)
Visibility: 6 or more miles (10+ km)
Ceiling: ceiling and visibility are OK
Clouds: unknown
Weather: no significant weather observed at this time

METAR text: LFQQ 241700Z AUTO 35006KT 320V030 CAVOK 28/18 Q1016 NOSIG
Conditions at: LFQQ (LILLE/LESQUIN , FR) observed 1700 UTC 24 June 2019
Temperature: 28.0°C (82°F)
Dewpoint: 18.0°C (64°F) [RH = 55%]
Pressure (altimeter): 30.00 inches Hg (1016.0 mb)
Winds: from the N (350 degrees) at 7 MPH (6 knots; 3.1 m/s)
Visibility: 6 or more miles (10+ km)
Ceiling: ceiling and visibility are OK
Clouds: unknown
Weather: no significant weather observed at this time

METAR text: LFQQ 241630Z AUTO 33007KT 300V360 CAVOK 28/19 Q1016 NOSIG
Conditions at: LFQQ (LILLE/LESQUIN , FR) observed 1630 UTC 24 June 2019
Temperature: 28.0°C (82°F)
Dewpoint: 19.0°C (66°F) [RH = 58%]
Pressure (altimeter): 30.00 inches Hg (1016.0 mb)
Winds: from the NNW (330 degrees) at 8 MPH (7 knots; 3.6 m/s)
Visibility: 6 or more miles (10+ km)
Ceiling: ceiling and visibility are OK
Clouds: unknown
Weather: no significant weather observed at this time

METAR text: LFQQ 241600Z AUTO 36007KT 320V030 CAVOK 28/20 Q1016 NOSIG
Conditions at: LFQQ (LILLE/LESQUIN , FR) observed 1600 UTC 24 June 2019
Temperature: 28.0°C (82°F)
Dewpoint: 20.0°C (68°F) [RH = 62%]
Pressure (altimeter): 30.00 inches Hg (1016.0 mb)
Winds: from the N (360 degrees) at 8 MPH (7 knots; 3.6 m/s)
Visibility: 6 or more miles (10+ km)
Ceiling: ceiling and visibility are OK
Clouds: unknown
Weather: no significant weather observed at this time

METAR text: LFQQ 241530Z AUTO 31007KT 270V350 CAVOK 28/20 Q1016 NOSIG
Conditions at: LFQQ (LILLE/LESQUIN , FR) observed 1530 UTC 24 June 2019
Temperature: 28.0°C (82°F)
Dewpoint: 20.0°C (68°F) [RH = 62%]
Pressure (altimeter): 30.00 inches Hg (1016.0 mb)
Winds: from the NW (310 degrees) at 8 MPH (7 knots; 3.6 m/s)
Visibility: 6 or more miles (10+ km)
Ceiling: ceiling and visibility are OK
Clouds: unknown
Weather: no significant weather observed at this time

METAR text: LFQQ 241500Z AUTO 29010KT CAVOK 28/20 Q1017 BECMG 02007KT
Conditions at: LFQQ (LILLE/LESQUIN , FR) observed 1500 UTC 24 June 2019
Temperature: 28.0°C (82°F)
Dewpoint: 20.0°C (68°F) [RH = 62%]
Pressure (altimeter): 30.03 inches Hg (1017.0 mb)
Winds: from the WNW (290 degrees) at 12 MPH (10 knots; 5.1 m/s)
Visibility: 6 or more miles (10+ km)
Ceiling: ceiling and visibility are OK
Clouds: unknown
Weather: no significant weather observed at this time

METAR text: LFQQ 241430Z AUTO 27011KT CAVOK 29/20 Q1017 BECMG 02007KT
Conditions at: LFQQ (LILLE/LESQUIN , FR) observed 1430 UTC 24 June 2019
Temperature: 29.0°C (84°F)
Dewpoint: 20.0°C (68°F) [RH = 58%]
Pressure (altimeter): 30.03 inches Hg (1017.0 mb)
Winds: from the W (270 degrees) at 13 MPH (11 knots; 5.7 m/s)
Visibility: 6 or more miles (10+ km)
Ceiling: ceiling and visibility are OK
Clouds: unknown
Weather: no significant weather observed at this time

METAR text: LFQQ 241400Z AUTO 27011KT 9999 SCT048 BKN180 30/20 Q1017 NOSIG
Conditions at: LFQQ (LILLE/LESQUIN , FR) observed 1400 UTC 24 June 2019
Temperature: 30.0°C (86°F)
Dewpoint: 20.0°C (68°F) [RH = 55%]
Pressure (altimeter): 30.03 inches Hg (1017.0 mb)
Winds: from the W (270 degrees) at 13 MPH (11 knots; 5.7 m/s)
Visibility: 6 or more miles (10+ km)
Ceiling: 18000 feet AGL
Clouds: scattered clouds at 4800 feet AGL
broken clouds at 18000 feet AGL
Weather: no significant weather observed at this time

METAR text: LFQQ 241330Z AUTO VRB03KT 9999 BKN049 30/18 Q1017 NOSIG
Conditions at: LFQQ (LILLE/LESQUIN , FR) observed 1330 UTC 24 June 2019
Temperature: 30.0°C (86°F)
Dewpoint: 18.0°C (64°F) [RH = 49%]
Pressure (altimeter): 30.03 inches Hg (1017.0 mb)
Winds: variable direction winds at 3 MPH (3 knots; 1.5 m/s)
Visibility: 6 or more miles (10+ km)
Ceiling: 4900 feet AGL
Clouds: broken clouds at 4900 feet AGL
Weather: no significant weather observed at this time

METAR text: LFQQ 241300Z AUTO 18005KT 130V260 CAVOK 30/19 Q1017 NOSIG
Conditions at: LFQQ (LILLE/LESQUIN , FR) observed 1300 UTC 24 June 2019
Temperature: 30.0°C (86°F)
Dewpoint: 19.0°C (66°F) [RH = 52%]
Pressure (altimeter): 30.03 inches Hg (1017.0 mb)
Winds: from the S (180 degrees) at 6 MPH (5 knots; 2.6 m/s)
Visibility: 6 or more miles (10+ km)
Ceiling: ceiling and visibility are OK
Clouds: unknown
Weather: no significant weather observed at this time

METAR text: LFQQ 241230Z AUTO 20007KT 150V240 CAVOK 31/18 Q1017 BECMG 31010KT
Conditions at: LFQQ (LILLE/LESQUIN , FR) observed 1230 UTC 24 June 2019
Temperature: 31.0°C (88°F)
Dewpoint: 18.0°C (64°F) [RH = 46%]
Pressure (altimeter): 30.03 inches Hg (1017.0 mb)
Winds: from the SSW (200 degrees) at 8 MPH (7 knots; 3.6 m/s)
Visibility: 6 or more miles (10+ km)
Ceiling: ceiling and visibility are OK
Clouds: unknown
Weather: no significant weather observed at this time

METAR text: LFQQ 241200Z AUTO 20010KT CAVOK 30/18 Q1017 BECMG 31010KT
Conditions at: LFQQ (LILLE/LESQUIN , FR) observed 1200 UTC 24 June 2019
Temperature: 30.0°C (86°F)
Dewpoint: 18.0°C (64°F) [RH = 49%]
Pressure (altimeter): 30.03 inches Hg (1017.0 mb)
Winds: from the SSW (200 degrees) at 12 MPH (10 knots; 5.1 m/s)
Visibility: 6 or more miles (10+ km)
Ceiling: ceiling and visibility are OK
Clouds: unknown
Weather: no significant weather observed at this time

METAR text: LFQQ 241130Z AUTO 18009KT 140V220 CAVOK 30/18 Q1017 BECMG 31010KT
Conditions at: LFQQ (LILLE/LESQUIN , FR) observed 1130 UTC 24 June 2019
Temperature: 30.0°C (86°F)
Dewpoint: 18.0°C (64°F) [RH = 49%]
Pressure (altimeter): 30.03 inches Hg (1017.0 mb)
Winds: from the S (180 degrees) at 10 MPH (9 knots; 4.6 m/s)
Visibility: 6 or more miles (10+ km)
Ceiling: ceiling and visibility are OK
Clouds: unknown
Weather: no significant weather observed at this time

METAR text: LFQQ 241100Z AUTO 15008KT 120V190 CAVOK 30/18 Q1016 NOSIG
Conditions at: LFQQ (LILLE/LESQUIN , FR) observed 1100 UTC 24 June 2019
Temperature: 30.0°C (86°F)
Dewpoint: 18.0°C (64°F) [RH = 49%]
Pressure (altimeter): 30.00 inches Hg (1016.0 mb)
Winds: from the SSE (150 degrees) at 9 MPH (8 knots; 4.1 m/s)
Visibility: 6 or more miles (10+ km)
Ceiling: ceiling and visibility are OK
Clouds: unknown
Weather: no significant weather observed at this time

METAR text: LFQQ 241030Z AUTO 15008KT 110V180 CAVOK 29/19 Q1016 NOSIG
Conditions at: LFQQ (LILLE/LESQUIN , FR) observed 1030 UTC 24 June 2019
Temperature: 29.0°C (84°F)
Dewpoint: 19.0°C (66°F) [RH = 55%]
Pressure (altimeter): 30.00 inches Hg (1016.0 mb)
Winds: from the SSE (150 degrees) at 9 MPH (8 knots; 4.1 m/s)
Visibility: 6 or more miles (10+ km)
Ceiling: ceiling and visibility are OK
Clouds: unknown
Weather: no significant weather observed at this time

METAR text: LFQQ 241000Z AUTO 14007KT 100V160 CAVOK 28/18 Q1016 NOSIG
Conditions at: LFQQ (LILLE/LESQUIN , FR) observed 1000 UTC 24 June 2019
Temperature: 28.0°C (82°F)
Dewpoint: 18.0°C (64°F) [RH = 55%]
Pressure (altimeter): 30.00 inches Hg (1016.0 mb)
Winds: from the SE (140 degrees) at 8 MPH (7 knots; 3.6 m/s)
Visibility: 6 or more miles (10+ km)
Ceiling: ceiling and visibility are OK
Clouds: unknown
Weather: no significant weather observed at this time

METAR text: LFQQ 240930Z AUTO 15006KT 110V190 CAVOK 27/18 Q1016 NOSIG
Conditions at: LFQQ (LILLE/LESQUIN , FR) observed 0930 UTC 24 June 2019
Temperature: 27.0°C (81°F)
Dewpoint: 18.0°C (64°F) [RH = 58%]
Pressure (altimeter): 30.00 inches Hg (1016.0 mb)
Winds: from the SSE (150 degrees) at 7 MPH (6 knots; 3.1 m/s)
Visibility: 6 or more miles (10+ km)
Ceiling: ceiling and visibility are OK
Clouds: unknown
Weather: no significant weather observed at this time

METAR text: LFQQ 240900Z AUTO 15007KT 120V180 CAVOK 27/18 Q1016 NOSIG
Conditions at: LFQQ (LILLE/LESQUIN , FR) observed 0900 UTC 24 June 2019
Temperature: 27.0°C (81°F)
Dewpoint: 18.0°C (64°F) [RH = 58%]
Pressure (altimeter): 30.00 inches Hg (1016.0 mb)
Winds: from the SSE (150 degrees) at 8 MPH (7 knots; 3.6 m/s)
Visibility: 6 or more miles (10+ km)
Ceiling: ceiling and visibility are OK
Clouds: unknown
Weather: no significant weather observed at this time

METAR text: LFQQ 240830Z AUTO 17008KT 130V190 CAVOK 26/18 Q1016 NOSIG
Conditions at: LFQQ (LILLE/LESQUIN , FR) observed 0830 UTC 24 June 2019
Temperature: 26.0°C (79°F)
Dewpoint: 18.0°C (64°F) [RH = 61%]
Pressure (altimeter): 30.00 inches Hg (1016.0 mb)
Winds: from the S (170 degrees) at 9 MPH (8 knots; 4.1 m/s)
Visibility: 6 or more miles (10+ km)
Ceiling: ceiling and visibility are OK
Clouds: unknown
Weather: no significant weather observed at this time

METAR text: LFQQ 240800Z AUTO 16006KT 120V200 CAVOK 25/18 Q1016 NOSIG
Conditions at: LFQQ (LILLE/LESQUIN , FR) observed 0800 UTC 24 June 2019
Temperature: 25.0°C (77°F)
Dewpoint: 18.0°C (64°F) [RH = 65%]
Pressure (altimeter): 30.00 inches Hg (1016.0 mb)
Winds: from the SSE (160 degrees) at 7 MPH (6 knots; 3.1 m/s)
Visibility: 6 or more miles (10+ km)
Ceiling: ceiling and visibility are OK
Clouds: unknown
Weather: no significant weather observed at this time

METAR text: LFQQ 240730Z AUTO 14007KT CAVOK 24/18 Q1016 NOSIG
Conditions at: LFQQ (LILLE/LESQUIN , FR) observed 0730 UTC 24 June 2019
Temperature: 24.0°C (75°F)
Dewpoint: 18.0°C (64°F) [RH = 69%]
Pressure (altimeter): 30.00 inches Hg (1016.0 mb)
Winds: from the SE (140 degrees) at 8 MPH (7 knots; 3.6 m/s)
Visibility: 6 or more miles (10+ km)
Ceiling: ceiling and visibility are OK
Clouds: unknown
Weather: no significant weather observed at this time

METAR text: LFQQ 240700Z AUTO 14006KT CAVOK 23/18 Q1016 NOSIG
Conditions at: LFQQ (LILLE/LESQUIN , FR) observed 0700 UTC 24 June 2019
Temperature: 23.0°C (73°F)
Dewpoint: 18.0°C (64°F) [RH = 73%]
Pressure (altimeter): 30.00 inches Hg (1016.0 mb)
Winds: from the SE (140 degrees) at 7 MPH (6 knots; 3.1 m/s)
Visibility: 6 or more miles (10+ km)
Ceiling: ceiling and visibility are OK
Clouds: unknown
Weather: no significant weather observed at this time

METAR text: LFQQ 240630Z AUTO 13007KT CAVOK 23/18 Q1016 NOSIG
Conditions at: LFQQ (LILLE/LESQUIN , FR) observed 0630 UTC 24 June 2019
Temperature: 23.0°C (73°F)
Dewpoint: 18.0°C (64°F) [RH = 73%]
Pressure (altimeter): 30.00 inches Hg (1016.0 mb)
Winds: from the SE (130 degrees) at 8 MPH (7 knots; 3.6 m/s)
Visibility: 6 or more miles (10+ km)
Ceiling: ceiling and visibility are OK
Clouds: unknown
Weather: no significant weather observed at this time

METAR text: LFQQ 240600Z AUTO 13007KT 090V150 CAVOK 22/17 Q1015 NOSIG
Conditions at: LFQQ (LILLE/LESQUIN , FR) observed 0600 UTC 24 June 2019
Temperature: 22.0°C (72°F)
Dewpoint: 17.0°C (63°F) [RH = 73%]
Pressure (altimeter): 29.97 inches Hg (1015.0 mb)
Winds: from the SE (130 degrees) at 8 MPH (7 knots; 3.6 m/s)
Visibility: 6 or more miles (10+ km)
Ceiling: ceiling and visibility are OK
Clouds: unknown
Weather: no significant weather observed at this time

METAR text: LFQQ 240530Z AUTO 13006KT CAVOK 21/17 Q1016 NOSIG
Conditions at: LFQQ (LILLE/LESQUIN , FR) observed 0530 UTC 24 June 2019
Temperature: 21.0°C (70°F)
Dewpoint: 17.0°C (63°F) [RH = 78%]
Pressure (altimeter): 30.00 inches Hg (1016.0 mb)
Winds: from the SE (130 degrees) at 7 MPH (6 knots; 3.1 m/s)
Visibility: 6 or more miles (10+ km)
Ceiling: ceiling and visibility are OK
Clouds: unknown
Weather: no significant weather observed at this time

METAR text: LFQQ 240500Z AUTO 13004KT CAVOK 20/17 Q1015 NOSIG
Conditions at: LFQQ (LILLE/LESQUIN , FR) observed 0500 UTC 24 June 2019
Temperature: 20.0°C (68°F)
Dewpoint: 17.0°C (63°F) [RH = 83%]
Pressure (altimeter): 29.97 inches Hg (1015.0 mb)
Winds: from the SE (130 degrees) at 5 MPH (4 knots; 2.1 m/s)
Visibility: 6 or more miles (10+ km)
Ceiling: ceiling and visibility are OK
Clouds: unknown
Weather: no significant weather observed at this time

METAR text: LFQQ 240430Z AUTO 12005KT CAVOK 19/16 Q1015 NOSIG
Conditions at: LFQQ (LILLE/LESQUIN , FR) observed 0430 UTC 24 June 2019
Temperature: 19.0°C (66°F)
Dewpoint: 16.0°C (61°F) [RH = 83%]
Pressure (altimeter): 29.97 inches Hg (1015.0 mb)
Winds: from the ESE (120 degrees) at 6 MPH (5 knots; 2.6 m/s)
Visibility: 6 or more miles (10+ km)
Ceiling: ceiling and visibility are OK
Clouds: unknown
Weather: no significant weather observed at this time

METAR text: LFQQ 240400Z AUTO 13003KT 090V150 CAVOK 19/16 Q1015 NOSIG
Conditions at: LFQQ (LILLE/LESQUIN , FR) observed 0400 UTC 24 June 2019
Temperature: 19.0°C (66°F)
Dewpoint: 16.0°C (61°F) [RH = 83%]
Pressure (altimeter): 29.97 inches Hg (1015.0 mb)
Winds: from the SE (130 degrees) at 3 MPH (3 knots; 1.5 m/s)
Visibility: 6 or more miles (10+ km)
Ceiling: ceiling and visibility are OK
Clouds: unknown
Weather: no significant weather observed at this time

METAR text: LFQQ 240330Z AUTO 10005KT CAVOK 19/16 Q1015 NOSIG
Conditions at: LFQQ (LILLE/LESQUIN , FR) observed 0330 UTC 24 June 2019
Temperature: 19.0°C (66°F)
Dewpoint: 16.0°C (61°F) [RH = 83%]
Pressure (altimeter): 29.97 inches Hg (1015.0 mb)
Winds: from the E (100 degrees) at 6 MPH (5 knots; 2.6 m/s)
Visibility: 6 or more miles (10+ km)
Ceiling: ceiling and visibility are OK
Clouds: unknown
Weather: no significant weather observed at this time

METAR text: LFQQ 240300Z AUTO 12006KT CAVOK 20/16 Q1015 NOSIG
Conditions at: LFQQ (LILLE/LESQUIN , FR) observed 0300 UTC 24 June 2019
Temperature: 20.0°C (68°F)
Dewpoint: 16.0°C (61°F) [RH = 78%]
Pressure (altimeter): 29.97 inches Hg (1015.0 mb)
Winds: from the ESE (120 degrees) at 7 MPH (6 knots; 3.1 m/s)
Visibility: 6 or more miles (10+ km)
Ceiling: ceiling and visibility are OK
Clouds: unknown
Weather: no significant weather observed at this time

METAR text: LFQQ 240230Z AUTO 12005KT CAVOK 20/16 Q1015 NOSIG
Conditions at: LFQQ (LILLE/LESQUIN , FR) observed 0230 UTC 24 June 2019
Temperature: 20.0°C (68°F)
Dewpoint: 16.0°C (61°F) [RH = 78%]
Pressure (altimeter): 29.97 inches Hg (1015.0 mb)
Winds: from the ESE (120 degrees) at 6 MPH (5 knots; 2.6 m/s)
Visibility: 6 or more miles (10+ km)
Ceiling: ceiling and visibility are OK
Clouds: unknown
Weather: no significant weather observed at this time

METAR text: LFQQ 240200Z AUTO 12005KT CAVOK 20/16 Q1015 NOSIG
Conditions at: LFQQ (LILLE/LESQUIN , FR) observed 0200 UTC 24 June 2019
Temperature: 20.0°C (68°F)
Dewpoint: 16.0°C (61°F) [RH = 78%]
Pressure (altimeter): 29.97 inches Hg (1015.0 mb)
Winds: from the ESE (120 degrees) at 6 MPH (5 knots; 2.6 m/s)
Visibility: 6 or more miles (10+ km)
Ceiling: ceiling and visibility are OK
Clouds: unknown
Weather: no significant weather observed at this time

METAR text: LFQQ 240130Z AUTO 11005KT CAVOK 20/16 Q1015 NOSIG
Conditions at: LFQQ (LILLE/LESQUIN , FR) observed 0130 UTC 24 June 2019
Temperature: 20.0°C (68°F)
Dewpoint: 16.0°C (61°F) [RH = 78%]
Pressure (altimeter): 29.97 inches Hg (1015.0 mb)
Winds: from the ESE (110 degrees) at 6 MPH (5 knots; 2.6 m/s)
Visibility: 6 or more miles (10+ km)
Ceiling: ceiling and visibility are OK
Clouds: unknown
Weather: no significant weather observed at this time

METAR text: LFQQ 240100Z AUTO 12005KT CAVOK 21/16 Q1016 NOSIG
Conditions at: LFQQ (LILLE/LESQUIN , FR) observed 0100 UTC 24 June 2019
Temperature: 21.0°C (70°F)
Dewpoint: 16.0°C (61°F) [RH = 73%]
Pressure (altimeter): 30.00 inches Hg (1016.0 mb)
Winds: from the ESE (120 degrees) at 6 MPH (5 knots; 2.6 m/s)
Visibility: 6 or more miles (10+ km)
Ceiling: ceiling and visibility are OK
Clouds: unknown
Weather: no significant weather observed at this time

METAR text: LFQQ 240030Z AUTO 11005KT CAVOK 21/17 Q1016 NOSIG
Conditions at: LFQQ (LILLE/LESQUIN , FR) observed 0030 UTC 24 June 2019
Temperature: 21.0°C (70°F)
Dewpoint: 17.0°C (63°F) [RH = 78%]
Pressure (altimeter): 30.00 inches Hg (1016.0 mb)
Winds: from the ESE (110 degrees) at 6 MPH (5 knots; 2.6 m/s)
Visibility: 6 or more miles (10+ km)
Ceiling: ceiling and visibility are OK
Clouds: unknown
Weather: no significant weather observed at this time

METAR text: LFQQ 240000Z AUTO 10005KT CAVOK 21/17 Q1016 NOSIG
Conditions at: LFQQ (LILLE/LESQUIN , FR) observed 0000 UTC 24 June 2019
Temperature: 21.0°C (70°F)
Dewpoint: 17.0°C (63°F) [RH = 78%]
Pressure (altimeter): 30.00 inches Hg (1016.0 mb)
Winds: from the E (100 degrees) at 6 MPH (5 knots; 2.6 m/s)
Visibility: 6 or more miles (10+ km)
Ceiling: ceiling and visibility are OK
Clouds: unknown
Weather: no significant weather observed at this time

METAR text: LFQQ 232330Z AUTO 10005KT CAVOK 21/17 Q1016 NOSIG
Conditions at: LFQQ (LILLE/LESQUIN , FR) observed 2330 UTC 23 June 2019
Temperature: 21.0°C (70°F)
Dewpoint: 17.0°C (63°F) [RH = 78%]
Pressure (altimeter): 30.00 inches Hg (1016.0 mb)
Winds: from the E (100 degrees) at 6 MPH (5 knots; 2.6 m/s)
Visibility: 6 or more miles (10+ km)
Ceiling: ceiling and visibility are OK
Clouds: unknown
Weather: no significant weather observed at this time

METAR text: LFQQ 232300Z AUTO 10004KT CAVOK 22/17 Q1016 NOSIG
Conditions at: LFQQ (LILLE/LESQUIN , FR) observed 2300 UTC 23 June 2019
Temperature: 22.0°C (72°F)
Dewpoint: 17.0°C (63°F) [RH = 73%]
Pressure (altimeter): 30.00 inches Hg (1016.0 mb)
Winds: from the E (100 degrees) at 5 MPH (4 knots; 2.1 m/s)
Visibility: 6 or more miles (10+ km)
Ceiling: ceiling and visibility are OK
Clouds: unknown
Weather: no significant weather observed at this time

METAR text: LFQQ 232230Z AUTO 11005KT CAVOK 22/17 Q1016 NOSIG
Conditions at: LFQQ (LILLE/LESQUIN , FR) observed 2230 UTC 23 June 2019
Temperature: 22.0°C (72°F)
Dewpoint: 17.0°C (63°F) [RH = 73%]
Pressure (altimeter): 30.00 inches Hg (1016.0 mb)
Winds: from the ESE (110 degrees) at 6 MPH (5 knots; 2.6 m/s)
Visibility: 6 or more miles (10+ km)
Ceiling: ceiling and visibility are OK
Clouds: unknown
Weather: no significant weather observed at this time

METAR text: LFQQ 232200Z AUTO 10005KT CAVOK 22/17 Q1016 NOSIG
Conditions at: LFQQ (LILLE/LESQUIN , FR) observed 2200 UTC 23 June 2019
Temperature: 22.0°C (72°F)
Dewpoint: 17.0°C (63°F) [RH = 73%]
Pressure (altimeter): 30.00 inches Hg (1016.0 mb)
Winds: from the E (100 degrees) at 6 MPH (5 knots; 2.6 m/s)
Visibility: 6 or more miles (10+ km)
Ceiling: ceiling and visibility are OK
Clouds: unknown
Weather: no significant weather observed at this time

METAR text: LFQQ 232130Z AUTO 10004KT CAVOK 23/17 Q1015 NOSIG
Conditions at: LFQQ (LILLE/LESQUIN , FR) observed 2130 UTC 23 June 2019
Temperature: 23.0°C (73°F)
Dewpoint: 17.0°C (63°F) [RH = 69%]
Pressure (altimeter): 29.97 inches Hg (1015.0 mb)
Winds: from the E (100 degrees) at 5 MPH (4 knots; 2.1 m/s)
Visibility: 6 or more miles (10+ km)
Ceiling: ceiling and visibility are OK
Clouds: unknown
Weather: no significant weather observed at this time

METAR text: LFQQ 232100Z AUTO 09004KT CAVOK 24/17 Q1015 NOSIG
Conditions at: LFQQ (LILLE/LESQUIN , FR) observed 2100 UTC 23 June 2019
Temperature: 24.0°C (75°F)
Dewpoint: 17.0°C (63°F) [RH = 65%]
Pressure (altimeter): 29.97 inches Hg (1015.0 mb)
Winds: from the E (90 degrees) at 5 MPH (4 knots; 2.1 m/s)
Visibility: 6 or more miles (10+ km)
Ceiling: ceiling and visibility are OK
Clouds: unknown
Weather: no significant weather observed at this time

METAR text: LFQQ 232030Z AUTO 11003KT CAVOK 24/17 Q1015 NOSIG
Conditions at: LFQQ (LILLE/LESQUIN , FR) observed 2030 UTC 23 June 2019
Temperature: 24.0°C (75°F)
Dewpoint: 17.0°C (63°F) [RH = 65%]
Pressure (altimeter): 29.97 inches Hg (1015.0 mb)
Winds: from the ESE (110 degrees) at 3 MPH (3 knots; 1.5 m/s)
Visibility: 6 or more miles (10+ km)
Ceiling: ceiling and visibility are OK
Clouds: unknown
Weather: no significant weather observed at this time

METAR text: LFQQ 232000Z AUTO 11005KT CAVOK 24/18 Q1015 NOSIG
Conditions at: LFQQ (LILLE/LESQUIN , FR) observed 2000 UTC 23 June 2019
Temperature: 24.0°C (75°F)
Dewpoint: 18.0°C (64°F) [RH = 69%]
Pressure (altimeter): 29.97 inches Hg (1015.0 mb)
Winds: from the ESE (110 degrees) at 6 MPH (5 knots; 2.6 m/s)
Visibility: 6 or more miles (10+ km)
Ceiling: ceiling and visibility are OK
Clouds: unknown
Weather: no significant weather observed at this time

METAR text: LFQQ 231930Z AUTO 12005KT CAVOK 25/18 Q1015 NOSIG
Conditions at: LFQQ (LILLE/LESQUIN , FR) observed 1930 UTC 23 June 2019
Temperature: 25.0°C (77°F)
Dewpoint: 18.0°C (64°F) [RH = 65%]
Pressure (altimeter): 29.97 inches Hg (1015.0 mb)
Winds: from the ESE (120 degrees) at 6 MPH (5 knots; 2.6 m/s)
Visibility: 6 or more miles (10+ km)
Ceiling: ceiling and visibility are OK
Clouds: unknown
Weather: no significant weather observed at this time

METAR text: LFQQ 231900Z AUTO 14006KT CAVOK 26/18 Q1015 NOSIG
Conditions at: LFQQ (LILLE/LESQUIN , FR) observed 1900 UTC 23 June 2019
Temperature: 26.0°C (79°F)
Dewpoint: 18.0°C (64°F) [RH = 61%]
Pressure (altimeter): 29.97 inches Hg (1015.0 mb)
Winds: from the SE (140 degrees) at 7 MPH (6 knots; 3.1 m/s)
Visibility: 6 or more miles (10+ km)
Ceiling: ceiling and visibility are OK
Clouds: unknown
Weather: no significant weather observed at this time

METAR text: LFQQ 231830Z AUTO 13005KT CAVOK 27/18 Q1015 NOSIG
Conditions at: LFQQ (LILLE/LESQUIN , FR) observed 1830 UTC 23 June 2019
Temperature: 27.0°C (81°F)
Dewpoint: 18.0°C (64°F) [RH = 58%]
Pressure (altimeter): 29.97 inches Hg (1015.0 mb)
Winds: from the SE (130 degrees) at 6 MPH (5 knots; 2.6 m/s)
Visibility: 6 or more miles (10+ km)
Ceiling: ceiling and visibility are OK
Clouds: unknown
Weather: no significant weather observed at this time

METAR text: LFQQ 231800Z AUTO 16005KT CAVOK 27/17 Q1015 NOSIG
Conditions at: LFQQ (LILLE/LESQUIN , FR) observed 1800 UTC 23 June 2019
Temperature: 27.0°C (81°F)
Dewpoint: 17.0°C (63°F) [RH = 54%]
Pressure (altimeter): 29.97 inches Hg (1015.0 mb)
Winds: from the SSE (160 degrees) at 6 MPH (5 knots; 2.6 m/s)
Visibility: 6 or more miles (10+ km)
Ceiling: ceiling and visibility are OK
Clouds: unknown
Weather: no significant weather observed at this time

METAR text: LFQQ 231730Z AUTO 17006KT 150V210 CAVOK 28/17 Q1014 NOSIG
Conditions at: LFQQ (LILLE/LESQUIN , FR) observed 1730 UTC 23 June 2019
Temperature: 28.0°C (82°F)
Dewpoint: 17.0°C (63°F) [RH = 51%]
Pressure (altimeter): 29.94 inches Hg (1014.0 mb)
Winds: from the S (170 degrees) at 7 MPH (6 knots; 3.1 m/s)
Visibility: 6 or more miles (10+ km)
Ceiling: ceiling and visibility are OK
Clouds: unknown
Weather: no significant weather observed at this time

METAR text: LFQQ 231700Z AUTO 16004KT CAVOK 28/18 Q1014 NOSIG
Conditions at: LFQQ (LILLE/LESQUIN , FR) observed 1700 UTC 23 June 2019
Temperature: 28.0°C (82°F)
Dewpoint: 18.0°C (64°F) [RH = 55%]
Pressure (altimeter): 29.94 inches Hg (1014.0 mb)
Winds: from the SSE (160 degrees) at 5 MPH (4 knots; 2.1 m/s)
Visibility: 6 or more miles (10+ km)
Ceiling: ceiling and visibility are OK
Clouds: unknown
Weather: no significant weather observed at this time

METAR text: LFQQ 231630Z AUTO 11006KT CAVOK 28/18 Q1014 NOSIG
Conditions at: LFQQ (LILLE/LESQUIN , FR) observed 1630 UTC 23 June 2019
Temperature: 28.0°C (82°F)
Dewpoint: 18.0°C (64°F) [RH = 55%]
Pressure (altimeter): 29.94 inches Hg (1014.0 mb)
Winds: from the ESE (110 degrees) at 7 MPH (6 knots; 3.1 m/s)
Visibility: 6 or more miles (10+ km)
Ceiling: ceiling and visibility are OK
Clouds: unknown
Weather: no significant weather observed at this time

METAR text: LFQQ 231600Z AUTO 11007KT 080V150 CAVOK 28/17 Q1014 NOSIG
Conditions at: LFQQ (LILLE/LESQUIN , FR) observed 1600 UTC 23 June 2019
Temperature: 28.0°C (82°F)
Dewpoint: 17.0°C (63°F) [RH = 51%]
Pressure (altimeter): 29.94 inches Hg (1014.0 mb)
Winds: from the ESE (110 degrees) at 8 MPH (7 knots; 3.6 m/s)
Visibility: 6 or more miles (10+ km)
Ceiling: ceiling and visibility are OK
Clouds: unknown
Weather: no significant weather observed at this time

METAR text: LFQQ 231530Z AUTO 09009KT CAVOK 28/17 Q1015 NOSIG
Conditions at: LFQQ (LILLE/LESQUIN , FR) observed 1530 UTC 23 June 2019
Temperature: 28.0°C (82°F)
Dewpoint: 17.0°C (63°F) [RH = 51%]
Pressure (altimeter): 29.97 inches Hg (1015.0 mb)
Winds: from the E (90 degrees) at 10 MPH (9 knots; 4.6 m/s)
Visibility: 6 or more miles (10+ km)
Ceiling: ceiling and visibility are OK
Clouds: unknown
Weather: no significant weather observed at this time

METAR text: LFQQ 231500Z AUTO 11008KT 060V140 CAVOK 29/17 Q1015 NOSIG
Conditions at: LFQQ (LILLE/LESQUIN , FR) observed 1500 UTC 23 June 2019
Temperature: 29.0°C (84°F)
Dewpoint: 17.0°C (63°F) [RH = 48%]
Pressure (altimeter): 29.97 inches Hg (1015.0 mb)
Winds: from the ESE (110 degrees) at 9 MPH (8 knots; 4.1 m/s)
Visibility: 6 or more miles (10+ km)
Ceiling: ceiling and visibility are OK
Clouds: unknown
Weather: no significant weather observed at this time

METAR text: LFQQ 231430Z AUTO 10010KT 070V140 CAVOK 29/16 Q1015 NOSIG
Conditions at: LFQQ (LILLE/LESQUIN , FR) observed 1430 UTC 23 June 2019
Temperature: 29.0°C (84°F)
Dewpoint: 16.0°C (61°F) [RH = 45%]
Pressure (altimeter): 29.97 inches Hg (1015.0 mb)
Winds: from the E (100 degrees) at 12 MPH (10 knots; 5.1 m/s)
Visibility: 6 or more miles (10+ km)
Ceiling: ceiling and visibility are OK
Clouds: unknown
Weather: no significant weather observed at this time

METAR text: LFQQ 231400Z AUTO 07008KT CAVOK 28/17 Q1015 NOSIG
Conditions at: LFQQ (LILLE/LESQUIN , FR) observed 1400 UTC 23 June 2019
Temperature: 28.0°C (82°F)
Dewpoint: 17.0°C (63°F) [RH = 51%]
Pressure (altimeter): 29.97 inches Hg (1015.0 mb)
Winds: from the ENE (70 degrees) at 9 MPH (8 knots; 4.1 m/s)
Visibility: 6 or more miles (10+ km)
Ceiling: ceiling and visibility are OK
Clouds: unknown
Weather: no significant weather observed at this time

METAR text: LFQQ 231330Z AUTO 10008KT 070V140 CAVOK 28/16 Q1015 NOSIG
Conditions at: LFQQ (LILLE/LESQUIN , FR) observed 1330 UTC 23 June 2019
Temperature: 28.0°C (82°F)
Dewpoint: 16.0°C (61°F) [RH = 48%]
Pressure (altimeter): 29.97 inches Hg (1015.0 mb)
Winds: from the E (100 degrees) at 9 MPH (8 knots; 4.1 m/s)
Visibility: 6 or more miles (10+ km)
Ceiling: ceiling and visibility are OK
Clouds: unknown
Weather: no significant weather observed at this time

METAR text: LFQQ 231300Z AUTO 09009KT 050V120 9999 FEW049 SCT056 28/16 Q1015 NOSIG
Conditions at: LFQQ (LILLE/LESQUIN , FR) observed 1300 UTC 23 June 2019
Temperature: 28.0°C (82°F)
Dewpoint: 16.0°C (61°F) [RH = 48%]
Pressure (altimeter): 29.97 inches Hg (1015.0 mb)
Winds: from the E (90 degrees) at 10 MPH (9 knots; 4.6 m/s)
Visibility: 6 or more miles (10+ km)
Ceiling: at least 12,000 feet AGL
Clouds: few clouds at 4900 feet AGL
scattered clouds at 5600 feet AGL
Weather: no significant weather observed at this time

METAR text: LFQQ 231230Z AUTO 10007KT 060V140 CAVOK 28/16 Q1016 NOSIG
Conditions at: LFQQ (LILLE/LESQUIN , FR) observed 1230 UTC 23 June 2019
Temperature: 28.0°C (82°F)
Dewpoint: 16.0°C (61°F) [RH = 48%]
Pressure (altimeter): 30.00 inches Hg (1016.0 mb)
Winds: from the E (100 degrees) at 8 MPH (7 knots; 3.6 m/s)
Visibility: 6 or more miles (10+ km)
Ceiling: ceiling and visibility are OK
Clouds: unknown
Weather: no significant weather observed at this time

METAR text: LFQQ 231200Z AUTO 08010KT 040V130 9999 FEW047 27/17 Q1016 NOSIG
Conditions at: LFQQ (LILLE/LESQUIN , FR) observed 1200 UTC 23 June 2019
Temperature: 27.0°C (81°F)
Dewpoint: 17.0°C (63°F) [RH = 54%]
Pressure (altimeter): 30.00 inches Hg (1016.0 mb)
Winds: from the E (80 degrees) at 12 MPH (10 knots; 5.1 m/s)
Visibility: 6 or more miles (10+ km)
Ceiling: at least 12,000 feet AGL
Clouds: few clouds at 4700 feet AGL
Weather: no significant weather observed at this time

METAR text: LFQQ 231130Z AUTO 08010KT 050V110 9999 FEW046 27/16 Q1016 NOSIG
Conditions at: LFQQ (LILLE/LESQUIN , FR) observed 1130 UTC 23 June 2019
Temperature: 27.0°C (81°F)
Dewpoint: 16.0°C (61°F) [RH = 51%]
Pressure (altimeter): 30.00 inches Hg (1016.0 mb)
Winds: from the E (80 degrees) at 12 MPH (10 knots; 5.1 m/s)
Visibility: 6 or more miles (10+ km)
Ceiling: at least 12,000 feet AGL
Clouds: few clouds at 4600 feet AGL
Weather: no significant weather observed at this time

METAR text: LFQQ 231100Z AUTO 10008KT 060V150 CAVOK 27/17 Q1016 NOSIG
Conditions at: LFQQ (LILLE/LESQUIN , FR) observed 1100 UTC 23 June 2019
Temperature: 27.0°C (81°F)
Dewpoint: 17.0°C (63°F) [RH = 54%]
Pressure (altimeter): 30.00 inches Hg (1016.0 mb)
Winds: from the E (100 degrees) at 9 MPH (8 knots; 4.1 m/s)
Visibility: 6 or more miles (10+ km)
Ceiling: ceiling and visibility are OK
Clouds: unknown
Weather: no significant weather observed at this time

METAR text: LFQQ 231030Z AUTO 08007KT 040V140 CAVOK 26/16 Q1017 NOSIG
Conditions at: LFQQ (LILLE/LESQUIN , FR) observed 1030 UTC 23 June 2019
Temperature: 26.0°C (79°F)
Dewpoint: 16.0°C (61°F) [RH = 54%]
Pressure (altimeter): 30.03 inches Hg (1017.0 mb)
Winds: from the E (80 degrees) at 8 MPH (7 knots; 3.6 m/s)
Visibility: 6 or more miles (10+ km)
Ceiling: ceiling and visibility are OK
Clouds: unknown
Weather: no significant weather observed at this time

METAR text: LFQQ 231000Z AUTO 11006KT 050V140 CAVOK 26/16 Q1017 NOSIG
Conditions at: LFQQ (LILLE/LESQUIN , FR) observed 1000 UTC 23 June 2019
Temperature: 26.0°C (79°F)
Dewpoint: 16.0°C (61°F) [RH = 54%]
Pressure (altimeter): 30.03 inches Hg (1017.0 mb)
Winds: from the ESE (110 degrees) at 7 MPH (6 knots; 3.1 m/s)
Visibility: 6 or more miles (10+ km)
Ceiling: ceiling and visibility are OK
Clouds: unknown
Weather: no significant weather observed at this time

METAR text: LFQQ 230930Z AUTO 09007KT 060V120 CAVOK 25/16 Q1017 NOSIG
Conditions at: LFQQ (LILLE/LESQUIN , FR) observed 0930 UTC 23 June 2019
Temperature: 25.0°C (77°F)
Dewpoint: 16.0°C (61°F) [RH = 57%]
Pressure (altimeter): 30.03 inches Hg (1017.0 mb)
Winds: from the E (90 degrees) at 8 MPH (7 knots; 3.6 m/s)
Visibility: 6 or more miles (10+ km)
Ceiling: ceiling and visibility are OK
Clouds: unknown
Weather: no significant weather observed at this time

METAR text: LFQQ 230900Z AUTO 08007KT 050V110 CAVOK 24/16 Q1017 NOSIG
Conditions at: LFQQ (LILLE/LESQUIN , FR) observed 0900 UTC 23 June 2019
Temperature: 24.0°C (75°F)
Dewpoint: 16.0°C (61°F) [RH = 61%]
Pressure (altimeter): 30.03 inches Hg (1017.0 mb)
Winds: from the E (80 degrees) at 8 MPH (7 knots; 3.6 m/s)
Visibility: 6 or more miles (10+ km)
Ceiling: ceiling and visibility are OK
Clouds: unknown
Weather: no significant weather observed at this time

METAR text: LFQQ 230830Z AUTO 08007KT 040V110 CAVOK 23/15 Q1017 NOSIG
Conditions at: LFQQ (LILLE/LESQUIN , FR) observed 0830 UTC 23 June 2019
Temperature: 23.0°C (73°F)
Dewpoint: 15.0°C (59°F) [RH = 61%]
Pressure (altimeter): 30.03 inches Hg (1017.0 mb)
Winds: from the E (80 degrees) at 8 MPH (7 knots; 3.6 m/s)
Visibility: 6 or more miles (10+ km)
Ceiling: ceiling and visibility are OK
Clouds: unknown
Weather: no significant weather observed at this time

METAR text: LFQQ 230800Z AUTO 06006KT CAVOK 22/16 Q1017 NOSIG
Conditions at: LFQQ (LILLE/LESQUIN , FR) observed 0800 UTC 23 June 2019
Temperature: 22.0°C (72°F)
Dewpoint: 16.0°C (61°F) [RH = 69%]
Pressure (altimeter): 30.03 inches Hg (1017.0 mb)
Winds: from the ENE (60 degrees) at 7 MPH (6 knots; 3.1 m/s)
Visibility: 6 or more miles (10+ km)
Ceiling: ceiling and visibility are OK
Clouds: unknown
Weather: no significant weather observed at this time

METAR text: LFQQ 230730Z AUTO 06004KT 020V100 CAVOK 21/15 Q1017 NOSIG
Conditions at: LFQQ (LILLE/LESQUIN , FR) observed 0730 UTC 23 June 2019
Temperature: 21.0°C (70°F)
Dewpoint: 15.0°C (59°F) [RH = 69%]
Pressure (altimeter): 30.03 inches Hg (1017.0 mb)
Winds: from the ENE (60 degrees) at 5 MPH (4 knots; 2.1 m/s)
Visibility: 6 or more miles (10+ km)
Ceiling: ceiling and visibility are OK
Clouds: unknown
Weather: no significant weather observed at this time

METAR text: LFQQ 230700Z AUTO 06006KT 040V100 CAVOK 20/15 Q1017 NOSIG
Conditions at: LFQQ (LILLE/LESQUIN , FR) observed 0700 UTC 23 June 2019
Temperature: 20.0°C (68°F)
Dewpoint: 15.0°C (59°F) [RH = 73%]
Pressure (altimeter): 30.03 inches Hg (1017.0 mb)
Winds: from the ENE (60 degrees) at 7 MPH (6 knots; 3.1 m/s)
Visibility: 6 or more miles (10+ km)
Ceiling: ceiling and visibility are OK
Clouds: unknown
Weather: no significant weather observed at this time

METAR text: LFQQ 230630Z AUTO 07006KT CAVOK 19/14 Q1017 NOSIG
Conditions at: LFQQ (LILLE/LESQUIN , FR) observed 0630 UTC 23 June 2019
Temperature: 19.0°C (66°F)
Dewpoint: 14.0°C (57°F) [RH = 73%]
Pressure (altimeter): 30.03 inches Hg (1017.0 mb)
Winds: from the ENE (70 degrees) at 7 MPH (6 knots; 3.1 m/s)
Visibility: 6 or more miles (10+ km)
Ceiling: ceiling and visibility are OK
Clouds: unknown
Weather: no significant weather observed at this time

METAR text: LFQQ 230600Z AUTO 05007KT CAVOK 18/14 Q1017 NOSIG
Conditions at: LFQQ (LILLE/LESQUIN , FR) observed 0600 UTC 23 June 2019
Temperature: 18.0°C (64°F)
Dewpoint: 14.0°C (57°F) [RH = 77%]
Pressure (altimeter): 30.03 inches Hg (1017.0 mb)
Winds: from the NE (50 degrees) at 8 MPH (7 knots; 3.6 m/s)
Visibility: 6 or more miles (10+ km)
Ceiling: ceiling and visibility are OK
Clouds: unknown
Weather: no significant weather observed at this time

Forecast for: LFQQ (LILLE/LESQUIN , FR)
Text: TAF LFQQ 241700Z 2418/2524 01007KT CAVOK
Forecast period: 1800 UTC 24 June 2019 to 0800 UTC 25 June 2019
Forecast type: FROM: standard forecast or significant change
Winds: from the N (10 degrees) at 8 MPH (7 knots; 3.6 m/s)
Visibility: 6 or more miles 10+ km)
Ceiling: unknown
Clouds: missing
Weather: NSW  (no significant weather)
Text: BECMG 2508/2510 14007KT
Forecast period: 0800 to 1300 UTC 25 June 2019
Forecast type: BECOMING: Conditions expected to become as follows by 1000 UTC 25 June 2019
Winds: from the SE (140 degrees) at 8 MPH (7 knots; 3.6 m/s)
Visibility: 6 or more miles 10+ km)
Ceiling: unknown
Clouds: missing
Weather: NSW  (no significant weather)
Text: BECMG 2513/2517 28010KT
Forecast period: 1300 UTC 25 June 2019 to 0000 UTC 26 June 2019
Forecast type: BECOMING: Conditions expected to become as follows by 1700 UTC 25 June 2019
Winds: from the W (280 degrees) at 12 MPH (10 knots; 5.1 m/s)
Visibility: 6 or more miles 10+ km)
Ceiling: unknown
Clouds: missing
Weather: NSW  (no significant weather)